sensor_id;sensor_type;location;lat;lon;timestamp;pressure;altitude;pressure_sealevel;temperature
45393;BMP280;31129;44.810;10.334;2022-11-20T00:01:20;99892.91;;;10.36
45393;BMP280;31129;44.810;10.334;2022-11-20T00:03:46;99900.34;;;10.35
45393;BMP280;31129;44.810;10.334;2022-11-20T00:06:16;99903.56;;;10.33
45393;BMP280;31129;44.810;10.334;2022-11-20T00:08:42;99901.59;;;10.40
45393;BMP280;31129;44.810;10.334;2022-11-20T00:11:10;99901.34;;;10.38
45393;BMP280;31129;44.810;10.334;2022-11-20T00:13:36;99900.84;;;10.39
45393;BMP280;31129;44.810;10.334;2022-11-20T00:16:05;99894.97;;;10.46
45393;BMP280;31129;44.810;10.334;2022-11-20T00:18:32;99901.66;;;10.45
45393;BMP280;31129;44.810;10.334;2022-11-20T00:21:06;99902.19;;;10.44
45393;BMP280;31129;44.810;10.334;2022-11-20T00:23:31;99901.47;;;10.49
45393;BMP280;31129;44.810;10.334;2022-11-20T00:26:08;99907.13;;;10.45
45393;BMP280;31129;44.810;10.334;2022-11-20T00:28:34;99901.72;;;10.51
45393;BMP280;31129;44.810;10.334;2022-11-20T00:31:05;99895.28;;;10.54
45393;BMP280;31129;44.810;10.334;2022-11-20T00:33:31;99894.81;;;10.55
45393;BMP280;31129;44.810;10.334;2022-11-20T00:36:05;99894.28;;;10.51
45393;BMP280;31129;44.810;10.334;2022-11-20T00:38:31;99890.34;;;10.52
45393;BMP280;31129;44.810;10.334;2022-11-20T00:41:01;99890.75;;;10.45
45393;BMP280;31129;44.810;10.334;2022-11-20T00:43:27;99893.25;;;10.43
45393;BMP280;31129;44.810;10.334;2022-11-20T00:46:00;99888.94;;;10.37
45393;BMP280;31129;44.810;10.334;2022-11-20T00:48:26;99889.50;;;10.41
45393;BMP280;31129;44.810;10.334;2022-11-20T00:50:53;99891.75;;;10.42
45393;BMP280;31129;44.810;10.334;2022-11-20T00:53:19;99891.50;;;10.46
45393;BMP280;31129;44.810;10.334;2022-11-20T00:55:55;99891.56;;;10.51
45393;BMP280;31129;44.810;10.334;2022-11-20T00:58:22;99891.81;;;10.53
45393;BMP280;31129;44.810;10.334;2022-11-20T01:00:48;99897.06;;;10.57
45393;BMP280;31129;44.810;10.334;2022-11-20T01:03:15;99894.78;;;10.50
45393;BMP280;31129;44.810;10.334;2022-11-20T01:05:41;99892.31;;;10.52
45393;BMP280;31129;44.810;10.334;2022-11-20T01:08:07;99900.97;;;10.50
45393;BMP280;31129;44.810;10.334;2022-11-20T01:10:33;99911.47;;;10.57
45393;BMP280;31129;44.810;10.334;2022-11-20T01:12:58;99916.34;;;10.53
45393;BMP280;31129;44.810;10.334;2022-11-20T01:15:42;99906.91;;;10.49
45393;BMP280;31129;44.810;10.334;2022-11-20T01:18:08;99905.69;;;10.50
45393;BMP280;31129;44.810;10.334;2022-11-20T01:20:35;99900.19;;;10.44
45393;BMP280;31129;44.810;10.334;2022-11-20T01:23:02;99901.44;;;10.43
45393;BMP280;31129;44.810;10.334;2022-11-20T01:25:27;99906.31;;;10.39
45393;BMP280;31129;44.810;10.334;2022-11-20T01:27:53;99904.03;;;10.32
45393;BMP280;31129;44.810;10.334;2022-11-20T01:30:18;99903.56;;;10.33
45393;BMP280;31129;44.810;10.334;2022-11-20T01:32:44;99893.84;;;10.27
45393;BMP280;31129;44.810;10.334;2022-11-20T01:35:09;99896.56;;;10.27
45393;BMP280;31129;44.810;10.334;2022-11-20T01:37:35;99892.13;;;10.29
45393;BMP280;31129;44.810;10.334;2022-11-20T01:40:01;99893.56;;;10.25
45393;BMP280;31129;44.810;10.334;2022-11-20T01:42:27;99899.22;;;10.21
45393;BMP280;31129;44.810;10.334;2022-11-20T01:48:15;99907.88;;;10.20
45393;BMP280;31129;44.810;10.334;2022-11-20T01:50:41;99909.38;;;10.21
45393;BMP280;31129;44.810;10.334;2022-11-20T01:53:11;99904.16;;;10.17
45393;BMP280;31129;44.810;10.334;2022-11-20T01:55:42;99901.16;;;10.15
45393;BMP280;31129;44.810;10.334;2022-11-20T01:58:10;99907.56;;;10.12
45393;BMP280;31129;44.810;10.334;2022-11-20T02:00:36;99903.66;;;10.19
45393;BMP280;31129;44.810;10.334;2022-11-20T02:03:14;99901.91;;;10.16
45393;BMP280;31129;44.810;10.334;2022-11-20T02:08:32;99910.81;;;10.16
45393;BMP280;31129;44.810;10.334;2022-11-20T02:10:57;99905.88;;;10.20
45393;BMP280;31129;44.810;10.334;2022-11-20T02:13:23;99908.63;;;10.20
45393;BMP280;31129;44.810;10.334;2022-11-20T02:16:14;99913.28;;;10.14
45393;BMP280;31129;44.810;10.334;2022-11-20T02:18:41;99906.31;;;10.13
45393;BMP280;31129;44.810;10.334;2022-11-20T02:21:25;99916.97;;;10.11
45393;BMP280;31129;44.810;10.334;2022-11-20T02:24:00;99916.47;;;10.13
45393;BMP280;31129;44.810;10.334;2022-11-20T02:26:28;99920.78;;;10.19
45393;BMP280;31129;44.810;10.334;2022-11-20T02:28:54;99914.44;;;10.08
45393;BMP280;31129;44.810;10.334;2022-11-20T02:31:20;99909.94;;;10.05
45393;BMP280;31129;44.810;10.334;2022-11-20T02:33:45;99915.94;;;10.09
45393;BMP280;31129;44.810;10.334;2022-11-20T02:36:14;99918.72;;;10.14
45393;BMP280;31129;44.810;10.334;2022-11-20T02:38:41;99916.97;;;10.11
45393;BMP280;31129;44.810;10.334;2022-11-20T02:41:07;99919.47;;;10.15
45393;BMP280;31129;44.810;10.334;2022-11-20T02:43:32;99919.75;;;10.17
45393;BMP280;31129;44.810;10.334;2022-11-20T02:45:58;99926.56;;;10.07
45393;BMP280;31129;44.810;10.334;2022-11-20T02:48:23;99924.31;;;10.05
45393;BMP280;31129;44.810;10.334;2022-11-20T02:50:49;99912.63;;;9.99
45393;BMP280;31129;44.810;10.334;2022-11-20T02:53:15;99905.41;;;9.96
45393;BMP280;31129;44.810;10.334;2022-11-20T02:55:41;99907.06;;;9.93
45393;BMP280;31129;44.810;10.334;2022-11-20T02:58:06;99908.53;;;9.89
45393;BMP280;31129;44.810;10.334;2022-11-20T03:00:32;99910.31;;;9.92
45393;BMP280;31129;44.810;10.334;2022-11-20T03:02:57;99907.50;;;9.86
45393;BMP280;31129;44.810;10.334;2022-11-20T03:05:23;99907.75;;;9.83
45393;BMP280;31129;44.810;10.334;2022-11-20T03:07:48;99904.00;;;9.80
45393;BMP280;31129;44.810;10.334;2022-11-20T03:10:14;99908.81;;;9.91
45393;BMP280;31129;44.810;10.334;2022-11-20T03:12:39;99918.41;;;9.86
45393;BMP280;31129;44.810;10.334;2022-11-20T03:15:05;99915.91;;;9.83
45393;BMP280;31129;44.810;10.334;2022-11-20T03:17:31;99912.44;;;9.82
45393;BMP280;31129;44.810;10.334;2022-11-20T03:19:56;99913.09;;;9.77
45393;BMP280;31129;44.810;10.334;2022-11-20T03:22:23;99910.13;;;9.75
45393;BMP280;31129;44.810;10.334;2022-11-20T03:24:48;99905.91;;;9.74
45393;BMP280;31129;44.810;10.334;2022-11-20T03:27:14;99910.13;;;9.75
45393;BMP280;31129;44.810;10.334;2022-11-20T03:29:39;99928.03;;;9.82
45393;BMP280;31129;44.810;10.334;2022-11-20T03:32:05;99926.69;;;9.77
45393;BMP280;31129;44.810;10.334;2022-11-20T03:34:30;99926.22;;;9.79
45393;BMP280;31129;44.810;10.334;2022-11-20T03:36:56;99923.22;;;9.77
45393;BMP280;31129;44.810;10.334;2022-11-20T03:39:21;99923.75;;;9.75
45393;BMP280;31129;44.810;10.334;2022-11-20T03:41:47;99922.72;;;9.73
45393;BMP280;31129;44.810;10.334;2022-11-20T03:44:12;99931.16;;;9.75
45393;BMP280;31129;44.810;10.334;2022-11-20T03:46:38;99936.34;;;9.73
45393;BMP280;31129;44.810;10.334;2022-11-20T03:49:04;99937.09;;;9.73
45393;BMP280;31129;44.810;10.334;2022-11-20T03:51:35;99944.03;;;9.74
45393;BMP280;31129;44.810;10.334;2022-11-20T03:54:04;99947.16;;;9.67
45393;BMP280;31129;44.810;10.334;2022-11-20T03:56:32;99956.63;;;9.72
45393;BMP280;31129;44.810;10.334;2022-11-20T03:58:58;99954.47;;;9.61
45393;BMP280;31129;44.810;10.334;2022-11-20T04:01:26;99957.69;;;9.59
45393;BMP280;31129;44.810;10.334;2022-11-20T04:03:53;99968.69;;;9.65
45393;BMP280;31129;44.810;10.334;2022-11-20T04:06:22;99963.13;;;9.59
45393;BMP280;31129;44.810;10.334;2022-11-20T04:08:50;99964.09;;;9.56
45393;BMP280;31129;44.810;10.334;2022-11-20T04:11:19;99969.47;;;9.51
45393;BMP280;31129;44.810;10.334;2022-11-20T04:13:47;99975.19;;;9.53
45393;BMP280;31129;44.810;10.334;2022-11-20T04:16:13;99971.44;;;9.50
45393;BMP280;31129;44.810;10.334;2022-11-20T04:18:39;99976.41;;;9.52
45393;BMP280;31129;44.810;10.334;2022-11-20T04:21:05;99968.25;;;9.52
45393;BMP280;31129;44.810;10.334;2022-11-20T04:23:33;99969.00;;;9.52
45393;BMP280;31129;44.810;10.334;2022-11-20T04:26:10;99973.59;;;9.46
45393;BMP280;31129;44.810;10.334;2022-11-20T04:28:37;99960.25;;;9.48
45393;BMP280;31129;44.810;10.334;2022-11-20T04:31:06;99973.41;;;9.50
45393;BMP280;31129;44.810;10.334;2022-11-20T04:33:33;99970.50;;;9.53
45393;BMP280;31129;44.810;10.334;2022-11-20T04:36:05;99978.84;;;9.50
45393;BMP280;31129;44.810;10.334;2022-11-20T04:38:32;99972.47;;;9.53
45393;BMP280;31129;44.810;10.334;2022-11-20T04:40:59;99981.38;;;9.53
45393;BMP280;31129;44.810;10.334;2022-11-20T04:43:25;99979.22;;;9.43
45393;BMP280;31129;44.810;10.334;2022-11-20T04:45:54;99970.78;;;9.41
45393;BMP280;31129;44.810;10.334;2022-11-20T04:48:20;99965.75;;;9.34
45393;BMP280;31129;44.810;10.334;2022-11-20T04:50:45;99957.50;;;9.28
45393;BMP280;31129;44.810;10.334;2022-11-20T04:53:11;99955.53;;;9.28
45393;BMP280;31129;44.810;10.334;2022-11-20T04:55:36;99955.81;;;9.31
45393;BMP280;31129;44.810;10.334;2022-11-20T04:58:02;99956.75;;;9.27
45393;BMP280;31129;44.810;10.334;2022-11-20T05:00:27;99965.19;;;9.29
45393;BMP280;31129;44.810;10.334;2022-11-20T05:02:53;99960.75;;;9.32
45393;BMP280;31129;44.810;10.334;2022-11-20T05:05:18;99965.66;;;9.28
45393;BMP280;31129;44.810;10.334;2022-11-20T05:07:44;99963.69;;;9.28
45393;BMP280;31129;44.810;10.334;2022-11-20T05:10:09;99971.84;;;9.28
45393;BMP280;31129;44.810;10.334;2022-11-20T05:12:35;99976.00;;;9.24
45393;BMP280;31129;44.810;10.334;2022-11-20T05:15:00;99979.56;;;9.15
45393;BMP280;31129;44.810;10.334;2022-11-20T05:17:25;99979.56;;;9.15
45393;BMP280;31129;44.810;10.334;2022-11-20T05:19:51;99985.47;;;9.14
45393;BMP280;31129;44.810;10.334;2022-11-20T05:22:16;99981.66;;;9.06
45393;BMP280;31129;44.810;10.334;2022-11-20T05:24:42;99989.72;;;9.00
45393;BMP280;31129;44.810;10.334;2022-11-20T05:27:07;99992.06;;;9.07
45393;BMP280;31129;44.810;10.334;2022-11-20T05:29:33;100009.59;;;9.06
45393;BMP280;31129;44.810;10.334;2022-11-20T05:31:58;100004.25;;;8.97
45393;BMP280;31129;44.810;10.334;2022-11-20T05:34:23;100000.97;;;8.78
45393;BMP280;31129;44.810;10.334;2022-11-20T05:36:49;100012.78;;;8.75
45393;BMP280;31129;44.810;10.334;2022-11-20T05:39:15;100014.06;;;8.65
45393;BMP280;31129;44.810;10.334;2022-11-20T05:41:40;100007.22;;;8.70
45393;BMP280;31129;44.810;10.334;2022-11-20T05:44:05;100016.88;;;8.71
45393;BMP280;31129;44.810;10.334;2022-11-20T05:46:31;100018.03;;;8.79
45393;BMP280;31129;44.810;10.334;2022-11-20T05:48:57;100032.56;;;8.76
45393;BMP280;31129;44.810;10.334;2022-11-20T05:51:23;100035.28;;;8.76
45393;BMP280;31129;44.810;10.334;2022-11-20T05:53:49;100029.63;;;8.65
45393;BMP280;31129;44.810;10.334;2022-11-20T05:56:19;100039.06;;;8.54
45393;BMP280;31129;44.810;10.334;2022-11-20T05:58:46;100030.81;;;8.49
45393;BMP280;31129;44.810;10.334;2022-11-20T06:01:18;100035.22;;;8.46
45393;BMP280;31129;44.810;10.334;2022-11-20T06:03:43;100031.94;;;8.42
45393;BMP280;31129;44.810;10.334;2022-11-20T06:06:11;100035.66;;;8.30
45393;BMP280;31129;44.810;10.334;2022-11-20T06:08:37;100027.28;;;8.34
45393;BMP280;31129;44.810;10.334;2022-11-20T06:11:08;100026.06;;;8.35
45393;BMP280;31129;44.810;10.334;2022-11-20T06:13:34;100022.44;;;8.38
45393;BMP280;31129;44.810;10.334;2022-11-20T06:16:00;100023.94;;;8.39
45393;BMP280;31129;44.810;10.334;2022-11-20T06:18:27;100030.81;;;8.49
45393;BMP280;31129;44.810;10.334;2022-11-20T06:21:07;100031.84;;;8.51
45393;BMP280;31129;44.810;10.334;2022-11-20T06:23:34;100036.84;;;8.53
45393;BMP280;31129;44.810;10.334;2022-11-20T06:26:08;100040.28;;;8.53
45393;BMP280;31129;44.810;10.334;2022-11-20T06:28:34;100042.63;;;8.46
45393;BMP280;31129;44.810;10.334;2022-11-20T06:30:59;100041.13;;;8.45
45393;BMP280;31129;44.810;10.334;2022-11-20T06:33:25;100030.13;;;8.39
45393;BMP280;31129;44.810;10.334;2022-11-20T06:35:51;100036.63;;;8.42
45393;BMP280;31129;44.810;10.334;2022-11-20T06:38:16;100041.00;;;8.39
45393;BMP280;31129;44.810;10.334;2022-11-20T06:40:42;100057.06;;;8.52
45393;BMP280;31129;44.810;10.334;2022-11-20T06:43:09;100057.88;;;8.43
45393;BMP280;31129;44.810;10.334;2022-11-20T06:45:35;100071.59;;;8.49
45393;BMP280;31129;44.810;10.334;2022-11-20T06:48:01;100073.16;;;8.41
45393;BMP280;31129;44.810;10.334;2022-11-20T06:50:26;100082.84;;;8.42
45393;BMP280;31129;44.810;10.334;2022-11-20T06:52:52;100085.88;;;8.35
45393;BMP280;31129;44.810;10.334;2022-11-20T06:55:17;100085.13;;;8.34
45393;BMP280;31129;44.810;10.334;2022-11-20T06:57:43;100082.84;;;8.42
45393;BMP280;31129;44.810;10.334;2022-11-20T07:00:08;100100.50;;;8.37
45393;BMP280;31129;44.810;10.334;2022-11-20T07:02:34;100102.63;;;8.33
45393;BMP280;31129;44.810;10.334;2022-11-20T07:04:59;100100.16;;;8.20
45393;BMP280;31129;44.810;10.334;2022-11-20T07:07:25;100102.38;;;8.31
45393;BMP280;31129;44.810;10.334;2022-11-20T07:09:50;100115.88;;;8.40
45393;BMP280;31129;44.810;10.334;2022-11-20T07:12:16;100125.88;;;8.34
45393;BMP280;31129;44.810;10.334;2022-11-20T07:14:41;100131.81;;;8.33
45393;BMP280;31129;44.810;10.334;2022-11-20T07:17:09;100140.03;;;8.38
45393;BMP280;31129;44.810;10.334;2022-11-20T07:19:35;100138.44;;;8.32
45393;BMP280;31129;44.810;10.334;2022-11-20T07:22:00;100147.13;;;8.45
45393;BMP280;31129;44.810;10.334;2022-11-20T07:24:26;100147.22;;;8.26
45393;BMP280;31129;44.810;10.334;2022-11-20T07:26:51;100147.81;;;8.31
45393;BMP280;31129;44.810;10.334;2022-11-20T07:29:17;100153.59;;;8.14
45393;BMP280;31129;44.810;10.334;2022-11-20T07:31:42;100154.94;;;8.19
45393;BMP280;31129;44.810;10.334;2022-11-20T07:34:11;100154.91;;;8.28
45393;BMP280;31129;44.810;10.334;2022-11-20T07:36:36;100160.66;;;8.30
45393;BMP280;31129;44.810;10.334;2022-11-20T07:39:02;100157.00;;;8.24
45393;BMP280;31129;44.810;10.334;2022-11-20T07:41:27;100156.53;;;8.35
45393;BMP280;31129;44.810;10.334;2022-11-20T07:43:54;100153.91;;;8.16
45393;BMP280;31129;44.810;10.334;2022-11-20T07:46:19;100154.66;;;8.17
45393;BMP280;31129;44.810;10.334;2022-11-20T07:48:45;100146.34;;;8.20
45393;BMP280;31129;44.810;10.334;2022-11-20T07:51:10;100151.13;;;8.25
45393;BMP280;31129;44.810;10.334;2022-11-20T07:53:35;100153.75;;;8.20
45393;BMP280;31129;44.810;10.334;2022-11-20T07:56:02;100148.94;;;8.06
45393;BMP280;31129;44.810;10.334;2022-11-20T07:58:31;100142.00;;;8.05
45393;BMP280;31129;44.810;10.334;2022-11-20T08:01:04;100144.91;;;7.92
45393;BMP280;31129;44.810;10.334;2022-11-20T08:03:30;100142.16;;;8.10
45393;BMP280;31129;44.810;10.334;2022-11-20T08:05:58;100147.88;;;8.12
45393;BMP280;31129;44.810;10.334;2022-11-20T08:08:24;100148.78;;;8.09
45393;BMP280;31129;44.810;10.334;2022-11-20T08:10:50;100148.47;;;8.16
45393;BMP280;31129;44.810;10.334;2022-11-20T08:13:15;100151.88;;;8.26
45393;BMP280;31129;44.810;10.334;2022-11-20T08:15:59;100160.34;;;8.28
45393;BMP280;31129;44.810;10.334;2022-11-20T08:18:25;100158.78;;;8.36
45393;BMP280;31129;44.810;10.334;2022-11-20T08:20:50;100160.56;;;8.39
45393;BMP280;31129;44.810;10.334;2022-11-20T08:23:16;100167.19;;;8.47
45393;BMP280;31129;44.810;10.334;2022-11-20T08:25:48;100158.16;;;8.41
45393;BMP280;31129;44.810;10.334;2022-11-20T08:28:14;100164.75;;;8.49
45393;BMP280;31129;44.810;10.334;2022-11-20T08:30:40;100176.03;;;8.24
45393;BMP280;31129;44.810;10.334;2022-11-20T08:33:07;100167.88;;;8.24
45393;BMP280;31129;44.810;10.334;2022-11-20T08:35:36;100171.22;;;8.28
45393;BMP280;31129;44.810;10.334;2022-11-20T08:38:04;100165.47;;;8.26
45393;BMP280;31129;44.810;10.334;2022-11-20T08:40:29;100171.53;;;8.21
45393;BMP280;31129;44.810;10.334;2022-11-20T08:42:58;100172.56;;;8.33
45393;BMP280;31129;44.810;10.334;2022-11-20T08:45:23;100164.81;;;8.40
45393;BMP280;31129;44.810;10.334;2022-11-20T08:47:49;100171.16;;;8.37
45393;BMP280;31129;44.810;10.334;2022-11-20T08:50:16;100181.72;;;8.35
45393;BMP280;31129;44.810;10.334;2022-11-20T08:52:42;100181.75;;;8.26
45393;BMP280;31129;44.810;10.334;2022-11-20T08:55:08;100180.41;;;8.31
45393;BMP280;31129;44.810;10.334;2022-11-20T08:57:34;100182.53;;;8.26
45393;BMP280;31129;44.810;10.334;2022-11-20T09:00:00;100175.47;;;8.20
45393;BMP280;31129;44.810;10.334;2022-11-20T09:02:26;100174.69;;;8.29
45393;BMP280;31129;44.810;10.334;2022-11-20T09:04:52;100183.25;;;8.36
45393;BMP280;31129;44.810;10.334;2022-11-20T09:07:19;100179.59;;;8.39
45393;BMP280;31129;44.810;10.334;2022-11-20T09:09:44;100177.31;;;8.47
45393;BMP280;31129;44.810;10.334;2022-11-20T09:12:09;100179.06;;;8.59
45393;BMP280;31129;44.810;10.334;2022-11-20T09:14:35;100182.63;;;8.65
45393;BMP280;31129;44.810;10.334;2022-11-20T09:17:00;100177.25;;;8.56
45393;BMP280;31129;44.810;10.334;2022-11-20T09:19:26;100186.00;;;8.60
45393;BMP280;31129;44.810;10.334;2022-11-20T09:21:52;100185.25;;;8.59
45393;BMP280;31129;44.810;10.334;2022-11-20T09:24:18;100188.50;;;8.73
45393;BMP280;31129;44.810;10.334;2022-11-20T09:26:44;100182.50;;;8.83
45393;BMP280;31129;44.810;10.334;2022-11-20T09:29:09;100193.97;;;8.64
45393;BMP280;31129;44.810;10.334;2022-11-20T09:31:35;100196.22;;;8.65
45393;BMP280;31129;44.810;10.334;2022-11-20T09:34:00;100191.91;;;8.58
45393;BMP280;31129;44.810;10.334;2022-11-20T09:36:26;100187.84;;;8.78
45393;BMP280;31129;44.810;10.334;2022-11-20T09:38:52;100198.72;;;9.02
45393;BMP280;31129;44.810;10.334;2022-11-20T09:41:29;100206.44;;;9.03
45393;BMP280;31129;44.810;10.334;2022-11-20T09:46:56;100208.34;;;9.12
45393;BMP280;31129;44.810;10.334;2022-11-20T09:55:03;100201.53;;;8.92
45393;BMP280;31129;44.810;10.334;2022-11-20T09:57:36;100201.03;;;8.94
45393;BMP280;31129;44.810;10.334;2022-11-20T10:00:05;100196.50;;;9.15
45393;BMP280;31129;44.810;10.334;2022-11-20T10:02:57;100197.53;;;9.17
45393;BMP280;31129;44.810;10.334;2022-11-20T10:08:21;100208.28;;;9.21
45393;BMP280;31129;44.810;10.334;2022-11-20T10:11:03;100201.50;;;9.31
45393;BMP280;31129;44.810;10.334;2022-11-20T10:16:41;100206.03;;;9.19
45393;BMP280;31129;44.810;10.334;2022-11-20T10:32:42;100199.69;;;9.52
45393;BMP280;31129;44.810;10.334;2022-11-20T10:35:34;100201.47;;;9.70
45393;BMP280;31129;44.810;10.334;2022-11-20T10:38:02;100192.34;;;9.87
45393;BMP280;31129;44.810;10.334;2022-11-20T10:40:42;100195.28;;;9.69
45393;BMP280;31129;44.810;10.334;2022-11-20T10:43:13;100189.16;;;9.74
45393;BMP280;31129;44.810;10.334;2022-11-20T10:45:47;100182.50;;;9.75
45393;BMP280;31129;44.810;10.334;2022-11-20T10:48:23;100191.03;;;9.97
45393;BMP280;31129;44.810;10.334;2022-11-20T10:54:29;100194.75;;;10.15
45393;BMP280;31129;44.810;10.334;2022-11-20T10:57:04;100191.28;;;10.14
45393;BMP280;31129;44.810;10.334;2022-11-20T11:02:22;100185.38;;;10.16
45393;BMP280;31129;44.810;10.334;2022-11-20T11:04:52;100187.28;;;10.10
45393;BMP280;31129;44.810;10.334;2022-11-20T11:07:37;100186.16;;;10.02
45393;BMP280;31129;44.810;10.334;2022-11-20T11:12:44;100171.97;;;9.97
45393;BMP280;31129;44.810;10.334;2022-11-20T11:17:54;100161.53;;;9.96
45393;BMP280;31129;44.810;10.334;2022-11-20T11:20:22;100160.38;;;10.03
45393;BMP280;31129;44.810;10.334;2022-11-20T11:22:54;100162.63;;;10.04
45393;BMP280;31129;44.810;10.334;2022-11-20T11:25:34;100155.75;;;10.09
45393;BMP280;31129;44.810;10.334;2022-11-20T11:28:24;100158.22;;;10.07
45393;BMP280;31129;44.810;10.334;2022-11-20T11:30:51;100158.00;;;10.25
45393;BMP280;31129;44.810;10.334;2022-11-20T11:33:25;100158.09;;;10.16
45393;BMP280;31129;44.810;10.334;2022-11-20T11:35:56;100154.50;;;10.24
45393;BMP280;31129;44.810;10.334;2022-11-20T11:38:32;100144.81;;;10.23
45393;BMP280;31129;44.810;10.334;2022-11-20T11:41:00;100138.56;;;10.17
45393;BMP280;31129;44.810;10.334;2022-11-20T11:43:29;100142.84;;;10.24
45393;BMP280;31129;44.810;10.334;2022-11-20T11:56:59;100154.38;;;10.54
45393;BMP280;31129;44.810;10.334;2022-11-20T11:59:31;100149.06;;;10.65
45393;BMP280;31129;44.810;10.334;2022-11-20T12:02:04;100155.34;;;10.91
45393;BMP280;31129;44.810;10.334;2022-11-20T12:04:46;100156.84;;;10.92
45393;BMP280;31129;44.810;10.334;2022-11-20T12:07:32;100152.88;;;10.93
45393;BMP280;31129;44.810;10.334;2022-11-20T12:10:01;100145.56;;;11.05
45393;BMP280;31129;44.810;10.334;2022-11-20T12:12:31;100158.38;;;11.19
45393;BMP280;31129;44.810;10.334;2022-11-20T12:15:00;100163.22;;;11.10
45393;BMP280;31129;44.810;10.334;2022-11-20T12:17:26;100155.09;;;11.15
45393;BMP280;31129;44.810;10.334;2022-11-20T12:19:51;100154.69;;;11.22
45393;BMP280;31129;44.810;10.334;2022-11-20T12:22:30;100160.91;;;11.28
45393;BMP280;31129;44.810;10.334;2022-11-20T12:25:03;100162.84;;;11.48
45393;BMP280;31129;44.810;10.334;2022-11-20T12:30:22;100154.47;;;11.57
45393;BMP280;31129;44.810;10.334;2022-11-20T12:36:19;100148.88;;;11.78
45393;BMP280;31129;44.810;10.334;2022-11-20T12:39:11;100146.38;;;11.68
45393;BMP280;31129;44.810;10.334;2022-11-20T12:41:46;100148.25;;;11.88
45393;BMP280;31129;44.810;10.334;2022-11-20T12:44:52;100146.31;;;11.94
45393;BMP280;31129;44.810;10.334;2022-11-20T12:53:07;100151.13;;;11.73
45393;BMP280;31129;44.810;10.334;2022-11-20T12:55:47;100141.28;;;11.56
45393;BMP280;31129;44.810;10.334;2022-11-20T13:04:12;100140.94;;;12.11
45393;BMP280;31129;44.810;10.334;2022-11-20T13:06:43;100151.00;;;12.36
45393;BMP280;31129;44.810;10.334;2022-11-20T13:09:11;100146.41;;;12.11
45393;BMP280;31129;44.810;10.334;2022-11-20T13:17:05;100145.94;;;12.18
45393;BMP280;31129;44.810;10.334;2022-11-20T13:19:34;100154.47;;;12.31
45393;BMP280;31129;44.810;10.334;2022-11-20T13:22:00;100149.56;;;12.47
45393;BMP280;31129;44.810;10.334;2022-11-20T13:24:30;100154.78;;;12.44
45393;BMP280;31129;44.810;10.334;2022-11-20T13:29:35;100154.88;;;12.78
45393;BMP280;31129;44.810;10.334;2022-11-20T13:34:29;100147.16;;;12.76
45393;BMP280;31129;44.810;10.334;2022-11-20T13:36:57;100154.91;;;12.89
45393;BMP280;31129;44.810;10.334;2022-11-20T13:39:36;100148.47;;;13.03
45393;BMP280;31129;44.810;10.334;2022-11-20T13:42:27;100145.50;;;13.01
45393;BMP280;31129;44.810;10.334;2022-11-20T13:45:01;100149.47;;;13.06
45393;BMP280;31129;44.810;10.334;2022-11-20T13:47:28;100152.75;;;13.15
45393;BMP280;31129;44.810;10.334;2022-11-20T13:49:55;100154.97;;;13.17
45393;BMP280;31129;44.810;10.334;2022-11-20T13:55:47;100159.69;;;13.44
45393;BMP280;31129;44.810;10.334;2022-11-20T14:01:23;100170.66;;;13.78
45393;BMP280;31129;44.810;10.334;2022-11-20T14:03:50;100173.66;;;13.85
45393;BMP280;31129;44.810;10.334;2022-11-20T14:06:43;100176.06;;;14.22
45393;BMP280;31129;44.810;10.334;2022-11-20T14:09:32;100170.97;;;14.43
45393;BMP280;31129;44.810;10.334;2022-11-20T14:11:57;100167.50;;;14.32
45393;BMP280;31129;44.810;10.334;2022-11-20T14:14:24;100169.31;;;14.18
45393;BMP280;31129;44.810;10.334;2022-11-20T14:16:51;100162.50;;;14.41
45393;BMP280;31129;44.810;10.334;2022-11-20T14:21:42;100168.13;;;14.60
45393;BMP280;31129;44.810;10.334;2022-11-20T14:24:11;100168.63;;;14.70
45393;BMP280;31129;44.810;10.334;2022-11-20T14:26:44;100175.69;;;14.48
45393;BMP280;31129;44.810;10.334;2022-11-20T14:29:14;100170.28;;;14.26
45393;BMP280;31129;44.810;10.334;2022-11-20T14:31:42;100167.44;;;14.48
45393;BMP280;31129;44.810;10.334;2022-11-20T14:34:25;100173.44;;;14.47
45393;BMP280;31129;44.810;10.334;2022-11-20T14:36:55;100171.44;;;14.47
45393;BMP280;31129;44.810;10.334;2022-11-20T14:39:26;100176.09;;;14.69
45393;BMP280;31129;44.810;10.334;2022-11-20T14:41:53;100166.13;;;14.60
45393;BMP280;31129;44.810;10.334;2022-11-20T14:44:29;100162.72;;;14.43
45393;BMP280;31129;44.810;10.334;2022-11-20T14:46:56;100165.13;;;14.63
45393;BMP280;31129;44.810;10.334;2022-11-20T14:49:22;100170.44;;;14.50
45393;BMP280;31129;44.810;10.334;2022-11-20T14:52:19;100161.19;;;14.48
45393;BMP280;31129;44.810;10.334;2022-11-20T14:54:48;100165.47;;;14.43
45393;BMP280;31129;44.810;10.334;2022-11-20T15:02:42;100168.75;;;14.31
45393;BMP280;31129;44.810;10.334;2022-11-20T15:05:07;100173.81;;;14.15
45393;BMP280;31129;44.810;10.334;2022-11-20T15:07:36;100174.13;;;13.95
45393;BMP280;31129;44.810;10.334;2022-11-20T15:10:05;100166.91;;;13.92
45393;BMP280;31129;44.810;10.334;2022-11-20T15:12:32;100164.69;;;13.68
45393;BMP280;31129;44.810;10.334;2022-11-20T15:14:58;100160.19;;;13.37
45393;BMP280;31129;44.810;10.334;2022-11-20T15:17:25;100156.72;;;13.20
45393;BMP280;31129;44.810;10.334;2022-11-20T15:19:51;100160.66;;;13.02
45393;BMP280;31129;44.810;10.334;2022-11-20T15:22:20;100160.34;;;12.83
45393;BMP280;31129;44.810;10.334;2022-11-20T15:24:46;100166.09;;;12.74
45393;BMP280;31129;44.810;10.334;2022-11-20T15:27:11;100169.50;;;12.64
45393;BMP280;31129;44.810;10.334;2022-11-20T15:29:37;100164.75;;;12.53
45393;BMP280;31129;44.810;10.334;2022-11-20T15:32:02;100155.75;;;12.41
45393;BMP280;31129;44.810;10.334;2022-11-20T15:34:28;100160.19;;;12.33
45393;BMP280;31129;44.810;10.334;2022-11-20T15:36:54;100148.44;;;12.22
45393;BMP280;31129;44.810;10.334;2022-11-20T15:39:19;100143.44;;;12.15
45393;BMP280;31129;44.810;10.334;2022-11-20T15:41:45;100137.41;;;12.05
45393;BMP280;31129;44.810;10.334;2022-11-20T15:44:11;100134.41;;;12.03